Time;durP1;ratioP1;P1;durP2;ratioP2;P2;SDS_P1;SDS_P2;PMS_P1;PMS_P2;Temp;Humidity;BMP_temperature;BMP_pressure;BME280_temperature;BME280_humidity;BME280_pressure;Samples;Min_cycle;Max_cycle;Signal;HPM_P1;HPM_P2
2021/06/09 00:00:52;;;;;;;17.67;15.98;;;;;;;19.12;100.00;99821.09;4949472;29;20208;-76
2021/06/09 00:03:21;;;;;;;17.88;15.93;;;;;;;19.16;100.00;99833.47;4954875;29;20290;-76
2021/06/09 00:05:48;;;;;;;18.85;17.15;;;;;;;18.99;100.00;99830.53;4943075;29;20229;-76
2021/06/09 00:08:14;;;;;;;17.70;15.90;;;;;;;18.95;100.00;99830.81;4944512;29;20204;-76
2021/06/09 00:10:40;;;;;;;16.70;15.10;;;;;;;19.04;100.00;99823.66;4954950;28;20270;-76
2021/06/09 00:13:07;;;;;;;17.40;15.80;;;;;;;19.25;100.00;99828.19;4940555;29;20287;-76
2021/06/09 00:15:34;;;;;;;16.70;15.18;;;;;;;19.10;100.00;99836.72;4946781;29;20227;-76
2021/06/09 00:18:03;;;;;;;17.45;15.65;;;;;;;18.89;100.00;99834.06;4954964;29;20214;-76
2021/06/09 00:20:31;;;;;;;16.63;15.15;;;;;;;19.13;100.00;99838.31;4953226;28;20228;-75
2021/06/09 00:22:57;;;;;;;16.40;15.00;;;;;;;19.04;100.00;99836.41;4949172;29;20223;-75
2021/06/09 00:25:23;;;;;;;15.43;14.02;;;;;;;19.13;100.00;99838.31;4954918;29;20483;-75
2021/06/09 00:27:52;;;;;;;16.08;14.63;;;;;;;19.04;100.00;99833.69;4944183;29;20301;-75
2021/06/09 00:30:22;;;;;;;15.73;14.23;;;;;;;18.98;100.00;99837.00;4941547;29;20198;-76
2021/06/09 00:32:48;;;;;;;15.57;14.18;;;;;;;18.99;100.00;99830.53;4947166;29;20694;-76
2021/06/09 00:35:14;;;;;;;15.90;14.45;;;;;;;19.06;100.00;99839.88;4951765;28;20270;-76
2021/06/09 00:37:42;;;;;;;14.18;12.88;;;;;;;19.14;100.00;99832.72;4957279;29;20622;-75
2021/06/09 00:40:11;;;;;;;14.63;13.32;;;;;;;19.26;99.91;99832.63;4958721;28;20554;-75
2021/06/09 00:42:38;;;;;;;14.20;12.80;;;;;;;19.18;99.97;99833.34;4949965;28;20278;-76
2021/06/09 00:45:05;;;;;;;14.80;13.45;;;;;;;19.27;100.00;99835.22;4944435;29;20202;-76
2021/06/09 00:47:31;;;;;;;16.08;14.57;;;;;;;19.15;100.00;99836.31;4950527;29;20279;-76
2021/06/09 00:49:58;;;;;;;16.67;15.07;;;;;;;19.13;100.00;99841.94;4947272;29;20190;-76
2021/06/09 00:52:25;;;;;;;16.77;14.70;;;;;;;19.16;100.00;99835.34;4946340;29;20564;-76
2021/06/09 00:54:55;;;;;;;15.40;13.90;;;;;;;19.21;100.00;99838.50;4958117;29;20251;-75
2021/06/09 00:57:24;;;;;;;16.13;14.50;;;;;;;19.26;100.00;99836.22;4950273;28;20196;-75
2021/06/09 00:59:51;;;;;;;16.55;15.10;;;;;;;19.33;100.00;99839.25;4957866;28;20519;-75
2021/06/09 01:02:17;;;;;;;15.70;14.25;;;;;;;19.25;100.00;99833.66;4951626;29;20227;-75
2021/06/09 01:04:43;;;;;;;16.65;15.15;;;;;;;19.36;99.94;99841.72;4943010;29;20255;-75
2021/06/09 01:07:10;;;;;;;16.90;14.98;;;;;;;19.36;99.46;99836.25;4958586;29;20216;-75
2021/06/09 01:09:36;;;;;;;15.50;13.98;;;;;;;19.35;98.43;99831.78;4958476;29;20200;-76
2021/06/09 01:12:04;;;;;;;16.40;14.85;;;;;;;19.50;96.59;99835.00;4948497;29;20254;-75
2021/06/09 01:14:30;;;;;;;14.93;13.63;;;;;;;19.42;96.74;99837.56;4945297;29;20280;-76
2021/06/09 01:16:57;;;;;;;16.58;14.82;;;;;;;19.36;97.78;99839.00;4957029;29;20726;-76
2021/06/09 01:19:23;;;;;;;21.45;16.17;;;;;;;19.19;100.00;99837.78;4951446;29;20235;-76
2021/06/09 01:21:51;;;;;;;17.50;15.90;;;;;;;19.07;100.00;99837.03;4942571;29;20203;-76
2021/06/09 01:24:17;;;;;;;17.17;15.47;;;;;;;18.95;100.00;99836.25;4941665;29;20242;-75
2021/06/09 01:26:44;;;;;;;18.58;16.88;;;;;;;18.80;100.00;99837.63;4957973;28;20910;-76
2021/06/09 01:29:11;;;;;;;18.98;17.08;;;;;;;18.72;100.00;99841.00;4940517;29;20283;-76
2021/06/09 01:31:37;;;;;;;18.17;16.38;;;;;;;18.55;100.00;99847.94;4943650;29;20224;-75
2021/06/09 01:34:05;;;;;;;18.95;17.23;;;;;;;18.38;100.00;99843.06;4957666;29;20545;-75
2021/06/09 01:36:33;;;;;;;18.45;16.75;;;;;;;18.39;100.00;99846.69;4958204;28;20220;-76
2021/06/09 01:39:06;;;;;;;18.70;16.88;;;;;;;18.21;100.00;99850.00;4950216;29;20259;-75
2021/06/09 01:41:32;;;;;;;20.10;18.10;;;;;;;18.13;100.00;99858.84;4951108;29;20689;-75
2021/06/09 01:43:58;;;;;;;20.70;18.70;;;;;;;18.13;100.00;99845.22;4942737;28;20298;-75
2021/06/09 01:46:25;;;;;;;18.70;16.77;;;;;;;18.15;100.00;99852.38;4947930;29;20200;-76
2021/06/09 01:48:51;;;;;;;19.55;17.45;;;;;;;18.13;100.00;99844.34;4957934;29;20224;-76
2021/06/09 01:51:18;;;;;;;20.63;18.70;;;;;;;18.07;100.00;99843.00;4957061;29;20231;-76
2021/06/09 01:53:44;;;;;;;21.05;19.00;;;;;;;18.16;100.00;99844.09;4944681;29;20540;-76
2021/06/09 01:56:11;;;;;;;20.75;18.55;;;;;;;18.24;100.00;99840.69;4953130;29;20656;-75
2021/06/09 01:58:37;;;;;;;19.70;17.63;;;;;;;18.33;100.00;99843.47;4949527;29;20229;-76
2021/06/09 02:01:04;;;;;;;18.80;17.05;;;;;;;18.25;100.00;99834.25;4943381;29;20348;-76
2021/06/09 02:03:31;;;;;;;20.27;18.25;;;;;;;18.11;100.00;99852.66;4956239;29;20199;-76
2021/06/09 02:05:58;;;;;;;20.35;18.42;;;;;;;17.98;100.00;99849.25;4957235;29;20713;-76
2021/06/09 02:08:24;;;;;;;21.42;19.33;;;;;;;17.85;100.00;99843.97;4949352;29;20219;-76
2021/06/09 02:10:50;;;;;;;23.45;19.00;;;;;;;17.82;100.00;99840.63;4957122;28;20207;-76
2021/06/09 02:13:18;;;;;;;21.20;19.20;;;;;;;17.81;100.00;99845.22;4949453;29;20287;-76
2021/06/09 02:15:46;;;;;;;21.38;19.17;;;;;;;17.82;100.00;99840.63;4945698;29;20663;-76
2021/06/09 02:18:13;;;;;;;22.60;18.45;;;;;;;17.74;100.00;99841.25;4945353;29;20195;-75
2021/06/09 02:20:43;;;;;;;20.27;18.40;;;;;;;17.71;100.00;99842.38;4954337;29;20976;-76
2021/06/09 02:23:11;;;;;;;21.05;19.00;;;;;;;17.63;100.00;99841.28;4951786;29;20285;-76
2021/06/09 02:25:41;;;;;;;20.40;18.50;;;;;;;17.71;100.00;99839.66;4956772;29;20208;-76
2021/06/09 02:28:07;;;;;;;21.95;19.65;;;;;;;17.70;100.00;99837.06;4951379;28;20250;-75
2021/06/09 02:30:35;;;;;;;20.95;18.95;;;;;;;17.63;100.00;99839.41;4937884;29;20278;-76
2021/06/09 02:33:03;;;;;;;20.92;18.90;;;;;;;17.62;100.00;99839.56;4946128;29;20279;-75
2021/06/09 02:35:34;;;;;;;25.80;19.45;;;;;;;17.63;100.00;99835.84;4945178;29;20238;-75
2021/06/09 02:38:00;;;;;;;22.27;20.05;;;;;;;17.72;100.00;99843.22;4949789;29;20190;-76
2021/06/09 02:40:26;;;;;;;21.25;19.15;;;;;;;17.49;100.00;99837.00;4956556;28;20292;-75
2021/06/09 02:42:52;;;;;;;22.88;20.88;;;;;;;17.34;100.00;99835.53;4940863;29;20187;-76
2021/06/09 02:45:20;;;;;;;23.60;21.23;;;;;;;17.26;100.00;99833.47;4956532;28;20336;-76
2021/06/09 02:47:50;;;;;;;22.10;19.80;;;;;;;17.17;100.00;99834.22;4955938;28;20196;-76
2021/06/09 02:50:19;;;;;;;24.05;21.55;;;;;;;17.25;100.00;99838.06;4942897;28;20207;-75
2021/06/09 02:52:53;;;;;;;22.90;20.60;;;;;;;17.24;100.00;99840.88;4953111;29;20204;-76
2021/06/09 02:55:32;;;;;;;23.23;20.95;;;;;;;17.17;100.00;99837.81;4937658;29;20277;-76
2021/06/09 02:58:05;;;;;;;23.60;21.30;;;;;;;17.21;100.00;99833.84;4945099;29;20218;-76
2021/06/09 03:00:37;;;;;;;23.67;21.35;;;;;;;17.17;100.00;99839.66;4953142;29;20694;-76
2021/06/09 03:03:12;;;;;;;23.65;21.35;;;;;;;17.11;100.00;99834.72;4945720;29;20234;-75
2021/06/09 03:05:43;;;;;;;23.02;20.50;;;;;;;17.21;100.00;99838.44;4953155;29;20193;-75
2021/06/09 03:08:20;;;;;;;24.48;20.83;;;;;;;17.13;100.00;99839.03;4956152;28;20700;-75
2021/06/09 03:10:52;;;;;;;23.38;20.95;;;;;;;17.09;100.00;99837.56;4946940;29;20186;-76
2021/06/09 03:13:34;;;;;;;23.45;21.05;;;;;;;17.08;100.00;99830.41;4937574;29;20202;-76
2021/06/09 03:16:05;;;;;;;22.33;20.30;;;;;;;16.95;100.00;99829.66;4937009;29;20198;-76
2021/06/09 03:18:39;;;;;;;25.02;22.27;;;;;;;16.98;100.00;99824.84;4943861;29;20192;-76
2021/06/09 03:21:08;;;;;;;24.63;22.15;;;;;;;17.06;100.00;99829.66;4947654;29;20304;-76
2021/06/09 03:23:45;;;;;;;24.63;22.23;;;;;;;17.06;100.00;99835.09;4948625;29;20737;-76
2021/06/09 03:26:26;;;;;;;24.65;22.13;;;;;;;17.02;100.00;99833.59;4956271;29;20328;-76
2021/06/09 03:28:58;;;;;;;24.45;22.10;;;;;;;16.96;100.00;99840.41;4948231;28;20534;-75
2021/06/09 03:31:30;;;;;;;24.02;21.52;;;;;;;16.80;100.00;99832.63;4951223;28;20245;-75
2021/06/09 03:33:59;;;;;;;23.63;21.25;;;;;;;16.75;100.00;99825.78;4946172;29;20534;-75
2021/06/09 03:36:29;;;;;;;25.35;22.65;;;;;;;16.75;100.00;99828.50;4955675;29;20281;-76
2021/06/09 03:38:58;;;;;;;24.88;22.27;;;;;;;16.73;100.00;99835.91;4947629;29;20227;-76
2021/06/09 03:41:30;;;;;;;24.20;21.73;;;;;;;16.79;100.00;99836.31;4955247;29;20213;-76
2021/06/09 03:43:59;;;;;;;24.75;22.17;;;;;;;16.75;100.00;99834.81;4946821;29;20217;-76
2021/06/09 03:46:27;;;;;;;24.75;22.25;;;;;;;16.70;100.00;99834.31;4948545;29;20246;-75
2021/06/09 03:48:56;;;;;;;23.88;21.48;;;;;;;16.49;100.00;99841.47;4947986;28;20189;-76
2021/06/09 03:51:27;;;;;;;26.00;23.33;;;;;;;16.50;100.00;99835.03;4955196;29;20193;-75
2021/06/09 03:53:55;;;;;;;25.00;22.40;;;;;;;16.54;100.00;99834.66;4939420;29;20228;-75
2021/06/09 03:56:24;;;;;;;24.40;21.98;;;;;;;16.52;100.00;99836.63;4936435;29;20190;-75
2021/06/09 03:58:53;;;;;;;24.10;21.60;;;;;;;16.57;100.00;99839.84;4943510;29;20202;-77
2021/06/09 04:01:20;;;;;;;24.17;21.58;;;;;;;16.45;100.00;99838.97;4955295;29;20293;-76
2021/06/09 04:03:48;;;;;;;24.48;21.73;;;;;;;16.50;100.00;99830.44;4947654;29;20196;-75
2021/06/09 04:06:17;;;;;;;24.52;21.90;;;;;;;16.46;100.00;99840.72;4952735;29;20682;-76
2021/06/09 04:08:46;;;;;;;28.35;22.60;;;;;;;16.57;100.00;99837.13;4942416;29;20593;-75
2021/06/09 04:11:18;;;;;;;25.33;22.70;;;;;;;16.73;100.00;99828.63;4955056;29;20189;-75
2021/06/09 04:13:45;;;;;;;24.98;22.38;;;;;;;16.67;100.00;99843.59;4949321;29;20514;-76
2021/06/09 04:16:14;;;;;;;27.63;21.48;;;;;;;16.62;100.00;99834.03;4953663;29;20200;-76
2021/06/09 04:18:47;;;;;;;23.83;21.63;;;;;;;16.65;100.00;99845.56;4941948;28;20200;-76
2021/06/09 04:21:13;;;;;;;26.95;24.15;;;;;;;16.67;100.00;99842.72;4943813;29;20320;-75
2021/06/09 04:23:40;;;;;;;25.48;22.35;;;;;;;16.60;100.00;99844.22;4941817;29;20552;-75
2021/06/09 04:26:12;;;;;;;25.98;23.23;;;;;;;16.62;100.00;99843.09;4955053;29;20694;-75
2021/06/09 04:28:39;;;;;;;25.30;22.60;;;;;;;16.67;100.00;99834.56;4950674;29;20691;-76
2021/06/09 04:31:06;;;;;;;25.95;22.30;;;;;;;16.63;100.00;99828.50;4944746;29;20201;-76
2021/06/09 04:33:32;;;;;;;26.27;23.48;;;;;;;16.58;100.00;99835.31;4943643;29;20281;-76
2021/06/09 04:35:59;;;;;;;25.27;22.38;;;;;;;16.85;100.00;99838.56;4936641;29;20636;-75
2021/06/09 04:38:25;;;;;;;23.70;21.40;;;;;;;17.07;100.00;99836.81;4954484;29;20201;-75
2021/06/09 04:40:53;;;;;;;24.50;22.00;;;;;;;17.16;100.00;99833.31;4955220;28;20209;-75
2021/06/09 04:43:22;;;;;;;23.58;21.42;;;;;;;17.10;100.00;99839.28;4945718;28;20194;-76
2021/06/09 04:45:51;;;;;;;25.63;23.00;;;;;;;17.10;100.00;99844.75;4943611;29;20291;-77
2021/06/09 04:48:18;;;;;;;27.15;24.20;;;;;;;17.17;100.00;99836.94;4955841;29;20194;-76
2021/06/09 04:50:47;;;;;;;25.85;23.17;;;;;;;17.36;100.00;99839.84;4955486;29;20288;-75
2021/06/09 04:53:14;;;;;;;23.83;21.52;;;;;;;17.47;100.00;99845.28;4954737;29;20229;-76
2021/06/09 04:55:42;;;;;;;24.92;22.33;;;;;;;17.80;98.28;99848.06;4954832;29;20189;-75
2021/06/09 04:58:09;;;;;;;25.35;22.77;;;;;;;17.92;95.56;99845.16;4955202;29;20660;-75
2021/06/09 05:00:38;;;;;;;21.63;19.50;;;;;;;18.15;92.55;99853.25;4955096;29;20650;-75
2021/06/09 05:03:04;;;;;;;21.17;19.13;;;;;;;18.08;92.46;99852.91;4955027;29;20257;-75
2021/06/09 05:05:30;;;;;;;21.30;19.20;;;;;;;18.21;91.09;99851.88;4955173;29;20204;-76
2021/06/09 05:07:57;;;;;;;21.58;19.55;;;;;;;18.36;89.53;99847.81;4954844;29;20199;-74
2021/06/09 05:10:23;;;;;;;21.85;19.77;;;;;;;18.29;89.55;99855.66;4954138;28;20231;-74
2021/06/09 05:12:54;;;;;;;21.40;19.20;;;;;;;18.45;89.26;99849.75;4954830;29;20692;-75
2021/06/09 05:15:23;;;;;;;21.80;19.70;;;;;;;18.81;86.83;99844.78;4953828;28;20196;-74
2021/06/09 05:17:51;;;;;;;21.65;19.55;;;;;;;18.83;85.89;99859.16;4952949;28;20207;-75
2021/06/09 05:20:23;;;;;;;22.73;20.38;;;;;;;18.92;85.34;99858.34;4941050;28;20208;-75
2021/06/09 05:22:56;;;;;;;22.15;20.08;;;;;;;19.02;84.27;99860.28;4948142;29;20675;-75
2021/06/09 05:25:23;;;;;;;22.90;20.70;;;;;;;18.93;84.46;99859.22;4954555;29;20200;-75
2021/06/09 05:27:50;;;;;;;22.40;20.05;;;;;;;18.72;84.83;99864.66;4956186;29;20287;-75
2021/06/09 05:30:19;;;;;;;22.25;20.02;;;;;;;18.81;84.70;99866.63;4957698;29;20195;-74
2021/06/09 05:32:46;;;;;;;22.85;19.52;;;;;;;19.02;83.98;99863.00;4954049;28;20242;-76
2021/06/09 05:35:16;;;;;;;20.90;18.95;;;;;;;19.35;81.92;99862.69;4957476;29;20603;-76
2021/06/09 05:37:43;;;;;;;21.00;19.00;;;;;;;19.45;79.83;99865.47;4945436;29;20199;-76
2021/06/09 05:40:10;;;;;;;21.73;19.58;;;;;;;19.24;79.92;99862.78;4943573;29;20244;-75
2021/06/09 05:42:37;;;;;;;21.10;19.13;;;;;;;19.16;80.14;99857.16;4956072;28;20204;-74
2021/06/09 05:45:08;;;;;;;21.33;19.27;;;;;;;19.26;79.60;99858.06;4938794;29;20202;-76
2021/06/09 05:47:40;;;;;;;18.80;17.13;;;;;;;19.55;77.94;99860.88;4946155;29;20276;-76
2021/06/09 05:50:12;;;;;;;20.85;19.05;;;;;;;19.70;77.26;99855.91;4944614;29;20204;-76
2021/06/09 05:52:39;;;;;;;22.42;20.23;;;;;;;19.89;76.29;99856.94;4949648;29;20277;-74
2021/06/09 05:55:06;;;;;;;20.15;18.27;;;;;;;20.08;74.99;99856.06;4956627;29;20189;-76
2021/06/09 05:57:33;;;;;;;21.45;19.45;;;;;;;20.23;74.28;99856.50;4942878;29;20197;-76
2021/06/09 05:59:59;;;;;;;21.00;18.92;;;;;;;20.34;73.44;99864.56;4939176;29;20213;-75
2021/06/09 06:02:28;;;;;;;20.40;18.60;;;;;;;20.46;73.05;99857.91;4944524;29;20701;-78
2021/06/09 06:04:55;;;;;;;21.57;19.43;;;;;;;20.55;72.19;99862.47;4949644;28;20220;-74
2021/06/09 06:07:21;;;;;;;22.63;20.43;;;;;;;20.58;71.92;99858.66;4957465;29;20491;-75
2021/06/09 06:09:49;;;;;;;22.10;20.00;;;;;;;20.73;71.77;99859.03;4949390;28;20494;-76
2021/06/09 06:12:16;;;;;;;22.47;20.07;;;;;;;20.66;72.16;99861.50;4948458;29;20432;-75
2021/06/09 06:14:44;;;;;;;22.20;19.97;;;;;;;20.75;71.36;99862.47;4957127;29;20483;-75
2021/06/09 06:17:10;;;;;;;22.37;20.27;;;;;;;20.76;71.13;99864.22;4946873;28;20851;-75
2021/06/09 06:19:38;;;;;;;19.90;17.60;;;;;;;20.53;71.75;99863.66;4958136;29;20915;-75
2021/06/09 06:22:08;;;;;;;20.20;18.30;;;;;;;20.58;71.64;99866.84;4956786;29;20424;-75
2021/06/09 06:24:38;;;;;;;18.23;16.33;;;;;;;20.66;70.65;99860.63;4957468;29;20755;-75
2021/06/09 06:27:06;;;;;;;19.93;18.03;;;;;;;20.94;69.01;99869.75;4957250;28;20942;-74
2021/06/09 06:29:33;;;;;;;18.77;17.07;;;;;;;21.12;68.30;99865.25;4949018;29;20439;-75
2021/06/09 06:32:00;;;;;;;21.87;17.33;;;;;;;21.20;68.30;99864.47;4945624;28;20800;-76
2021/06/09 06:34:27;;;;;;;20.67;18.43;;;;;;;21.44;67.86;99864.84;4957836;29;20535;-74
2021/06/09 06:36:56;;;;;;;19.30;17.50;;;;;;;21.60;67.22;99863.31;4957018;29;20507;-75
2021/06/09 06:39:22;;;;;;;19.87;17.97;;;;;;;21.48;67.87;99867.25;4956812;29;20499;-76
2021/06/09 06:41:48;;;;;;;17.80;16.00;;;;;;;21.27;68.66;99857.38;4945458;29;20560;-74
2021/06/09 06:44:17;;;;;;;18.83;16.97;;;;;;;21.35;68.46;99857.50;4955404;29;20448;-75
2021/06/09 06:46:43;;;;;;;18.03;16.43;;;;;;;21.67;66.70;99863.56;4943180;29;20789;-76
2021/06/09 06:49:11;;;;;;;17.87;16.27;;;;;;;21.81;65.37;99863.00;4946234;29;20491;-75
2021/06/09 06:51:38;;;;;;;18.07;16.40;;;;;;;21.91;65.06;99860.19;4955997;29;20436;-74
2021/06/09 06:54:04;;;;;;;17.47;15.73;;;;;;;21.80;64.81;99856.69;4955891;28;20480;-74
2021/06/09 06:56:33;;;;;;;18.70;16.90;;;;;;;21.84;65.95;99859.94;4945083;29;20930;-74
2021/06/09 06:59:00;;;;;;;18.20;16.50;;;;;;;21.79;65.93;99854.94;4954163;28;20531;-75
2021/06/09 07:01:31;;;;;;;16.60;15.00;;;;;;;21.98;64.95;99851.19;4953428;29;20548;-76
2021/06/09 07:04:00;;;;;;;18.37;15.53;;;;;;;22.37;63.55;99852.78;4950489;29;20524;-74
2021/06/09 07:06:30;;;;;;;17.00;14.20;;;;;;;22.25;63.49;99861.25;4953211;29;20794;-75
2021/06/09 07:08:57;;;;;;;17.43;15.73;;;;;;;22.06;63.95;99855.91;4941968;29;20453;-76
2021/06/09 07:11:23;;;;;;;15.77;14.27;;;;;;;22.32;63.39;99860.59;4951019;29;20948;-74
2021/06/09 07:13:51;;;;;;;17.13;15.33;;;;;;;22.49;62.95;99857.84;4948424;29;20468;-74
2021/06/09 07:16:18;;;;;;;18.00;15.13;;;;;;;22.38;63.15;99854.50;4954027;29;20436;-73
2021/06/09 07:18:47;;;;;;;17.00;15.50;;;;;;;22.63;62.07;99858.28;4946155;29;20935;-75
2021/06/09 07:21:14;;;;;;;15.60;14.20;;;;;;;22.99;60.65;99855.41;4949568;29;20504;-75
2021/06/09 07:23:41;;;;;;;15.10;13.53;;;;;;;23.06;60.63;99854.63;4948515;29;20476;-75
2021/06/09 07:26:08;;;;;;;15.00;13.53;;;;;;;23.10;60.18;99855.16;4955366;29;20503;-75
2021/06/09 07:28:39;;;;;;;14.47;13.10;;;;;;;23.23;60.10;99855.59;4955445;29;20433;-74
2021/06/09 07:31:07;;;;;;;13.90;12.70;;;;;;;23.36;59.88;99857.88;4953678;28;20458;-74
2021/06/09 07:33:33;;;;;;;13.10;11.90;;;;;;;23.30;60.36;99856.63;4949004;29;20447;-74
2021/06/09 07:36:05;;;;;;;14.37;12.93;;;;;;;23.59;59.50;99857.28;4949435;29;21013;-75
2021/06/09 07:38:39;;;;;;;14.53;13.13;;;;;;;23.70;59.43;99867.97;4942893;28;20441;-75
2021/06/09 07:41:08;;;;;;;15.07;12.40;;;;;;;23.88;58.44;99862.38;4954140;29;20552;-75
2021/06/09 07:43:39;;;;;;;11.97;10.90;;;;;;;23.79;58.49;99855.97;4948705;28;20444;-75
2021/06/09 07:46:07;;;;;;;11.70;10.50;;;;;;;23.72;58.70;99854.88;4954816;29;20531;-75
2021/06/09 07:48:34;;;;;;;12.30;11.30;;;;;;;23.82;58.37;99872.13;4946777;29;20443;-73
2021/06/09 07:51:05;;;;;;;11.10;10.17;;;;;;;24.05;58.41;99855.00;4955659;28;20862;-75
2021/06/09 07:53:35;;;;;;;10.20;9.20;;;;;;;23.72;56.57;99871.38;4955042;29;20588;-76
2021/06/09 07:56:01;;;;;;;11.40;10.30;;;;;;;23.75;57.75;99871.09;4956015;28;20815;-75
2021/06/09 07:58:31;;;;;;;11.27;10.17;;;;;;;23.76;56.62;99867.28;4955272;28;20450;-75
2021/06/09 08:00:58;;;;;;;11.90;10.80;;;;;;;23.73;57.72;99873.97;4955474;29;20477;-75
2021/06/09 08:03:26;;;;;;;12.30;11.10;;;;;;;23.79;58.24;99863.34;4956118;28;20505;-75
2021/06/09 08:05:53;;;;;;;11.50;10.50;;;;;;;23.78;58.23;99859.75;4956069;29;20965;-76
2021/06/09 08:08:21;;;;;;;14.10;12.90;;;;;;;23.89;52.88;99861.31;4955793;29;20459;-75
2021/06/09 08:10:47;;;;;;;11.63;10.63;;;;;;;24.34;53.48;99860.84;4955149;29;20478;-75
2021/06/09 08:13:14;;;;;;;11.90;10.70;;;;;;;24.52;52.76;99857.09;4955368;28;20450;-75
2021/06/09 08:15:41;;;;;;;13.70;12.40;;;;;;;23.83;54.94;99867.50;4955576;28;20851;-74
2021/06/09 08:18:08;;;;;;;13.50;12.20;;;;;;;23.92;56.15;99861.84;4955777;28;20797;-75
2021/06/09 08:20:36;;;;;;;13.47;12.07;;;;;;;24.16;56.00;99864.81;4955194;28;20515;-75
2021/06/09 08:23:02;;;;;;;12.70;11.57;;;;;;;24.11;56.26;99857.06;4955596;29;20508;-74
2021/06/09 08:25:30;;;;;;;14.97;13.50;;;;;;;24.08;56.19;99866.53;4955308;28;20499;-75
2021/06/09 08:27:56;;;;;;;13.70;12.43;;;;;;;24.23;55.92;99854.84;4955947;29;20808;-76
2021/06/09 08:30:23;;;;;;;15.20;13.60;;;;;;;24.16;53.80;99848.31;4955929;28;20425;-75
2021/06/09 08:32:51;;;;;;;14.97;13.60;;;;;;;24.32;52.23;99851.91;4955093;29;20534;-75
2021/06/09 08:35:18;;;;;;;16.63;13.00;;;;;;;24.71;52.48;99847.59;4955355;29;20508;-76
2021/06/09 08:37:44;;;;;;;12.63;11.53;;;;;;;25.10;51.79;99849.56;4954996;29;20483;-75
2021/06/09 08:40:12;;;;;;;13.70;12.40;;;;;;;25.11;50.75;99854.91;4954560;28;20627;-75
2021/06/09 08:42:44;;;;;;;13.40;12.10;;;;;;;25.25;50.35;99858.00;4955255;28;20437;-75
2021/06/09 08:45:13;;;;;;;14.60;13.20;;;;;;;25.28;50.37;99860.38;4954945;29;20447;-75
2021/06/09 08:47:40;;;;;;;14.37;13.07;;;;;;;25.38;47.31;99852.78;4955347;28;20539;-76
2021/06/09 08:50:09;;;;;;;16.90;15.40;;;;;;;25.12;47.26;99864.03;4954660;28;20424;-76
2021/06/09 08:52:40;;;;;;;14.83;13.50;;;;;;;25.02;46.79;99857.88;4935820;29;20449;-75
2021/06/09 08:55:07;;;;;;;15.00;13.70;;;;;;;24.93;46.92;99859.78;4936063;29;20464;-76
2021/06/09 08:57:34;;;;;;;16.97;15.47;;;;;;;24.98;47.47;99860.13;4939854;29;20536;-75
2021/06/09 09:00:02;;;;;;;15.37;13.97;;;;;;;25.00;46.66;99857.19;4939116;29;20449;-74
2021/06/09 09:02:28;;;;;;;15.30;13.87;;;;;;;24.93;45.97;99860.63;4939182;29;20528;-77
2021/06/09 09:04:55;;;;;;;13.80;12.63;;;;;;;24.91;46.19;99861.84;4938925;29;20440;-75
2021/06/09 09:07:28;;;;;;;16.80;14.40;;;;;;;25.10;46.52;99855.97;4939459;29;20433;-75
2021/06/09 09:09:56;;;;;;;15.13;13.43;;;;;;;25.13;46.75;99855.59;4939591;29;20547;-75
2021/06/09 09:12:22;;;;;;;13.30;12.10;;;;;;;25.29;46.20;99862.97;4940089;29;20484;-76
2021/06/09 09:14:48;;;;;;;14.13;12.83;;;;;;;25.18;46.65;99858.72;4939266;29;20838;-74
2021/06/09 09:17:16;;;;;;;14.17;12.77;;;;;;;25.09;47.00;99869.91;4938751;29;20539;-75
2021/06/09 09:19:45;;;;;;;13.87;12.57;;;;;;;25.47;45.03;99857.22;4938880;29;20524;-74
2021/06/09 09:22:17;;;;;;;13.00;11.70;;;;;;;25.85;44.87;99865.66;4938880;29;21002;-75
2021/06/09 09:24:45;;;;;;;13.03;11.73;;;;;;;25.69;45.58;99868.47;4938672;29;20433;-76
2021/06/09 09:27:23;;;;;;;14.00;12.70;;;;;;;25.58;46.25;99858.72;4939024;29;20920;-75
2021/06/09 09:30:03;;;;;;;13.60;12.40;;;;;;;25.29;46.87;99862.13;4938748;29;20531;-75
2021/06/09 09:32:31;;;;;;;15.30;13.30;;;;;;;25.34;46.52;99862.44;4938426;29;20848;-75
2021/06/09 09:35:05;;;;;;;12.50;11.30;;;;;;;25.10;45.82;99866.09;4945276;29;20488;-75
2021/06/09 09:37:32;;;;;;;12.17;11.17;;;;;;;25.29;45.02;99867.63;4956945;29;20509;-74
2021/06/09 09:40:14;;;;;;;12.30;11.30;;;;;;;25.56;44.74;99867.16;4939179;29;20449;-75
2021/06/09 09:42:40;;;;;;;12.53;11.37;;;;;;;25.37;44.29;99868.47;4938664;29;20524;-75
2021/06/09 09:45:15;;;;;;;11.43;10.43;;;;;;;25.03;45.93;99873.34;4938545;29;20971;-76
2021/06/09 09:47:43;;;;;;;12.83;10.90;;;;;;;25.18;45.19;99860.56;4938757;29;20448;-75
2021/06/09 09:50:28;;;;;;;12.70;11.47;;;;;;;24.97;46.24;99869.44;4938954;29;21016;-76
2021/06/09 09:52:55;;;;;;;13.40;12.00;;;;;;;25.04;46.20;99873.19;4946783;29;20432;-76
2021/06/09 09:55:21;;;;;;;12.03;11.03;;;;;;;24.85;46.79;99860.69;4945448;28;20449;-75
2021/06/09 09:57:47;;;;;;;11.80;10.77;;;;;;;25.34;45.99;99860.53;4938306;29;20482;-75
2021/06/09 10:00:30;;;;;;;12.20;10.97;;;;;;;25.43;45.71;99869.63;4938008;29;20477;-75
2021/06/09 10:05:50;;;;;;;11.23;10.23;;;;;;;25.79;44.33;99867.22;5152469;27;20323;-76
2021/06/09 10:08:16;;;;;;;9.67;8.90;;;;;;;25.79;42.95;99867.22;5151382;27;20443;-76
2021/06/09 10:10:42;;;;;;;10.47;9.67;;;;;;;25.58;43.53;99855.97;5151967;27;20435;-76
2021/06/09 10:13:11;;;;;;;10.83;9.77;;;;;;;25.79;42.68;99856.19;5151757;27;20436;-76
2021/06/09 10:15:47;;;;;;;9.90;9.10;;;;;;;26.00;42.63;99852.81;5152248;27;20466;-76
2021/06/09 10:18:14;;;;;;;9.97;9.17;;;;;;;25.95;44.14;99848.88;5152344;27;20415;-76
2021/06/09 10:20:41;;;;;;;10.37;9.40;;;;;;;25.92;43.59;99855.63;5152134;27;20799;-76
2021/06/09 10:23:32;;;;;;;9.03;8.30;;;;;;;26.29;41.98;99848.44;5151757;27;20443;-77
2021/06/09 10:26:06;;;;;;;9.33;8.57;;;;;;;26.17;42.15;99847.19;5152263;27;20510;-76
2021/06/09 10:28:56;;;;;;;9.70;8.80;;;;;;;26.56;41.77;99841.50;5152023;27;20430;-78
2021/06/09 10:31:22;;;;;;;8.37;7.67;;;;;;;26.68;41.61;99843.81;5151551;27;20462;-76
2021/06/09 10:33:49;;;;;;;8.40;7.70;;;;;;;26.39;41.67;99845.47;5152007;27;20439;-76
2021/06/09 10:36:17;;;;;;;7.83;7.13;;;;;;;26.29;40.63;99840.16;5151651;27;20567;-76
2021/06/09 10:38:46;;;;;;;8.20;6.90;;;;;;;26.24;39.87;99839.03;5151758;27;20825;-76
2021/06/09 10:41:14;;;;;;;6.80;6.17;;;;;;;26.28;39.68;99838.47;5151364;27;20518;-75
2021/06/09 10:43:42;;;;;;;7.03;6.43;;;;;;;26.42;39.72;99842.31;5151763;27;20557;-77
2021/06/09 10:46:10;;;;;;;7.27;6.67;;;;;;;26.34;40.96;99842.38;5151791;27;20935;-77
2021/06/09 10:48:37;;;;;;;7.73;6.93;;;;;;;26.34;41.79;99837.69;5151711;27;20424;-76
2021/06/09 10:51:04;;;;;;;7.47;6.87;;;;;;;26.34;41.83;99834.09;5151155;27;20450;-77
2021/06/09 10:53:30;;;;;;;7.90;7.20;;;;;;;26.24;41.61;99842.63;5151378;27;20471;-76
2021/06/09 10:55:59;;;;;;;7.00;6.50;;;;;;;26.29;40.98;99844.84;5151683;27;20411;-76
2021/06/09 10:58:25;;;;;;;8.37;7.67;;;;;;;26.46;41.48;99846.41;5151346;27;20427;-76
2021/06/09 11:00:54;;;;;;;7.80;7.13;;;;;;;26.17;42.19;99838.91;5151337;27;20443;-76
2021/06/09 11:03:25;;;;;;;7.20;6.60;;;;;;;26.54;41.73;99828.91;5150678;27;20484;-76
2021/06/09 11:05:51;;;;;;;6.50;5.90;;;;;;;26.65;41.05;99830.41;5109719;28;20440;-76
2021/06/09 11:08:17;;;;;;;8.27;6.10;;;;;;;26.44;41.57;99829.19;5109548;28;20445;-76
2021/06/09 11:10:46;;;;;;;6.40;5.90;;;;;;;26.49;41.05;99835.00;5108502;28;20913;-77
2021/06/09 11:13:29;;;;;;;7.20;6.50;;;;;;;26.04;41.39;99841.41;5095725;28;20844;-75
2021/06/09 11:16:06;;;;;;;7.27;6.67;;;;;;;26.45;40.53;99835.56;5103338;28;20845;-75
2021/06/09 11:18:40;;;;;;;6.80;6.20;;;;;;;26.65;40.28;99831.25;5095883;28;20450;-77
2021/06/09 11:21:07;;;;;;;7.13;6.63;;;;;;;26.58;40.91;99831.13;5095346;28;20422;-76
2021/06/09 11:23:37;;;;;;;7.00;6.50;;;;;;;26.30;41.90;99836.38;5095440;28;20524;-76
2021/06/09 11:26:05;;;;;;;7.23;6.53;;;;;;;26.39;41.81;99824.22;5096042;28;20518;-76